sensor_id;sensor_type;location;lat;lon;timestamp;temperature;humidity
75442;DHT22;64019;48.312;14.226;2023-08-31T00:02:02;13.80;99.90
75442;DHT22;64019;48.312;14.226;2023-08-31T00:04:29;13.80;99.90
75442;DHT22;64019;48.312;14.226;2023-08-31T00:06:55;13.80;99.90
75442;DHT22;64019;48.312;14.226;2023-08-31T00:09:23;13.90;99.90
75442;DHT22;64019;48.312;14.226;2023-08-31T00:11:49;13.80;99.90
75442;DHT22;64019;48.312;14.226;2023-08-31T00:14:15;13.80;99.90
75442;DHT22;64019;48.312;14.226;2023-08-31T00:16:41;13.70;99.90
75442;DHT22;64019;48.312;14.226;2023-08-31T00:19:07;13.70;99.90
75442;DHT22;64019;48.312;14.226;2023-08-31T00:21:32;13.60;99.90
75442;DHT22;64019;48.312;14.226;2023-08-31T00:23:58;13.50;99.90
75442;DHT22;64019;48.312;14.226;2023-08-31T00:26:25;13.60;99.90
75442;DHT22;64019;48.312;14.226;2023-08-31T00:28:50;13.50;99.90
75442;DHT22;64019;48.312;14.226;2023-08-31T00:31:16;13.50;99.90
75442;DHT22;64019;48.312;14.226;2023-08-31T00:33:42;13.50;99.90
75442;DHT22;64019;48.312;14.226;2023-08-31T00:36:08;13.40;99.90
75442;DHT22;64019;48.312;14.226;2023-08-31T00:38:34;13.40;99.90
75442;DHT22;64019;48.312;14.226;2023-08-31T00:41:00;13.50;99.90
75442;DHT22;64019;48.312;14.226;2023-08-31T00:43:26;13.50;99.90
75442;DHT22;64019;48.312;14.226;2023-08-31T00:45:55;13.40;99.90
75442;DHT22;64019;48.312;14.226;2023-08-31T00:48:25;13.30;99.90
75442;DHT22;64019;48.312;14.226;2023-08-31T00:50:51;13.30;99.90
75442;DHT22;64019;48.312;14.226;2023-08-31T00:53:17;13.30;99.90
75442;DHT22;64019;48.312;14.226;2023-08-31T00:55:44;13.30;99.90
75442;DHT22;64019;48.312;14.226;2023-08-31T00:58:10;13.30;99.90
75442;DHT22;64019;48.312;14.226;2023-08-31T01:12:02;13.20;99.90
75442;DHT22;64019;48.312;14.226;2023-08-31T01:14:34;13.20;99.90
75442;DHT22;64019;48.312;14.226;2023-08-31T01:17:02;13.20;99.90
75442;DHT22;64019;48.312;14.226;2023-08-31T01:19:50;13.10;99.90
75442;DHT22;64019;48.312;14.226;2023-08-31T01:25:01;13.20;99.90
75442;DHT22;64019;48.312;14.226;2023-08-31T01:27:30;13.20;99.90
75442;DHT22;64019;48.312;14.226;2023-08-31T01:29:57;13.20;99.90
75442;DHT22;64019;48.312;14.226;2023-08-31T01:32:23;13.20;99.90
75442;DHT22;64019;48.312;14.226;2023-08-31T01:34:50;13.30;99.90
75442;DHT22;64019;48.312;14.226;2023-08-31T01:37:24;13.30;99.90
75442;DHT22;64019;48.312;14.226;2023-08-31T01:40:14;13.30;99.90
75442;DHT22;64019;48.312;14.226;2023-08-31T01:42:42;13.30;99.90
75442;DHT22;64019;48.312;14.226;2023-08-31T01:45:08;13.30;99.90
75442;DHT22;64019;48.312;14.226;2023-08-31T01:47:35;13.30;99.90
75442;DHT22;64019;48.312;14.226;2023-08-31T01:50:01;13.30;99.90
75442;DHT22;64019;48.312;14.226;2023-08-31T01:52:27;13.40;99.90
75442;DHT22;64019;48.312;14.226;2023-08-31T01:54:53;13.30;99.90
75442;DHT22;64019;48.312;14.226;2023-08-31T01:57:18;13.30;99.90
75442;DHT22;64019;48.312;14.226;2023-08-31T01:59:44;13.30;99.90
75442;DHT22;64019;48.312;14.226;2023-08-31T02:02:10;13.30;99.90
75442;DHT22;64019;48.312;14.226;2023-08-31T02:04:35;13.30;99.90
75442;DHT22;64019;48.312;14.226;2023-08-31T02:07:01;13.20;99.90
75442;DHT22;64019;48.312;14.226;2023-08-31T02:09:26;13.30;99.90
75442;DHT22;64019;48.312;14.226;2023-08-31T02:11:52;13.30;99.90
75442;DHT22;64019;48.312;14.226;2023-08-31T02:14:18;13.30;99.90
75442;DHT22;64019;48.312;14.226;2023-08-31T02:16:44;13.30;99.90
75442;DHT22;64019;48.312;14.226;2023-08-31T02:19:09;13.30;99.90
75442;DHT22;64019;48.312;14.226;2023-08-31T02:21:35;13.30;99.90
75442;DHT22;64019;48.312;14.226;2023-08-31T02:24:01;13.30;99.90
75442;DHT22;64019;48.312;14.226;2023-08-31T02:26:26;13.30;99.90
75442;DHT22;64019;48.312;14.226;2023-08-31T02:28:52;13.30;99.90
75442;DHT22;64019;48.312;14.226;2023-08-31T02:31:18;13.40;99.90
75442;DHT22;64019;48.312;14.226;2023-08-31T02:33:46;13.40;99.90
75442;DHT22;64019;48.312;14.226;2023-08-31T02:36:11;13.40;99.90
75442;DHT22;64019;48.312;14.226;2023-08-31T02:38:37;13.40;99.90
75442;DHT22;64019;48.312;14.226;2023-08-31T02:41:03;13.40;99.90
75442;DHT22;64019;48.312;14.226;2023-08-31T02:43:28;13.40;99.90
75442;DHT22;64019;48.312;14.226;2023-08-31T02:46:02;13.40;99.90
75442;DHT22;64019;48.312;14.226;2023-08-31T02:48:28;13.50;99.90
75442;DHT22;64019;48.312;14.226;2023-08-31T02:50:58;13.50;99.90
75442;DHT22;64019;48.312;14.226;2023-08-31T02:53:27;13.50;99.90
75442;DHT22;64019;48.312;14.226;2023-08-31T02:55:52;13.50;99.90
75442;DHT22;64019;48.312;14.226;2023-08-31T02:58:18;13.50;99.90
75442;DHT22;64019;48.312;14.226;2023-08-31T03:00:45;13.50;99.90
75442;DHT22;64019;48.312;14.226;2023-08-31T03:03:17;13.50;99.90
75442;DHT22;64019;48.312;14.226;2023-08-31T03:05:44;13.50;99.90
75442;DHT22;64019;48.312;14.226;2023-08-31T03:08:10;13.60;99.90
75442;DHT22;64019;48.312;14.226;2023-08-31T03:10:37;13.60;99.90
75442;DHT22;64019;48.312;14.226;2023-08-31T03:13:03;13.60;99.90
75442;DHT22;64019;48.312;14.226;2023-08-31T03:15:29;13.60;99.90
75442;DHT22;64019;48.312;14.226;2023-08-31T03:17:55;13.70;99.90
75442;DHT22;64019;48.312;14.226;2023-08-31T03:20:20;13.70;99.90
75442;DHT22;64019;48.312;14.226;2023-08-31T03:22:46;13.70;99.90
75442;DHT22;64019;48.312;14.226;2023-08-31T03:25:12;13.70;99.90
75442;DHT22;64019;48.312;14.226;2023-08-31T03:27:37;13.70;99.90
75442;DHT22;64019;48.312;14.226;2023-08-31T03:30:03;13.70;99.90
75442;DHT22;64019;48.312;14.226;2023-08-31T03:32:29;13.80;99.90
75442;DHT22;64019;48.312;14.226;2023-08-31T03:34:55;13.80;99.90
75442;DHT22;64019;48.312;14.226;2023-08-31T03:37:20;13.70;99.90
75442;DHT22;64019;48.312;14.226;2023-08-31T03:39:50;13.80;99.90
75442;DHT22;64019;48.312;14.226;2023-08-31T03:42:15;13.80;99.90
75442;DHT22;64019;48.312;14.226;2023-08-31T03:44:41;13.70;99.90
75442;DHT22;64019;48.312;14.226;2023-08-31T03:47:07;13.70;99.90
75442;DHT22;64019;48.312;14.226;2023-08-31T03:49:33;13.70;99.90
75442;DHT22;64019;48.312;14.226;2023-08-31T03:52:00;13.70;99.90
75442;DHT22;64019;48.312;14.226;2023-08-31T03:54:26;13.60;99.90
75442;DHT22;64019;48.312;14.226;2023-08-31T03:56:51;13.60;99.90
75442;DHT22;64019;48.312;14.226;2023-08-31T03:59:17;13.70;99.90
75442;DHT22;64019;48.312;14.226;2023-08-31T04:01:43;13.60;99.90
75442;DHT22;64019;48.312;14.226;2023-08-31T04:04:09;13.60;99.90
75442;DHT22;64019;48.312;14.226;2023-08-31T04:06:35;13.50;99.90
75442;DHT22;64019;48.312;14.226;2023-08-31T04:09:01;13.50;99.90
75442;DHT22;64019;48.312;14.226;2023-08-31T04:11:26;13.50;99.90
75442;DHT22;64019;48.312;14.226;2023-08-31T04:13:52;13.40;99.90
75442;DHT22;64019;48.312;14.226;2023-08-31T04:16:18;13.40;99.90
75442;DHT22;64019;48.312;14.226;2023-08-31T04:18:44;13.40;99.90
75442;DHT22;64019;48.312;14.226;2023-08-31T04:21:30;13.40;99.90
75442;DHT22;64019;48.312;14.226;2023-08-31T04:24:29;13.40;99.90
75442;DHT22;64019;48.312;14.226;2023-08-31T04:27:23;13.40;99.90
75442;DHT22;64019;48.312;14.226;2023-08-31T04:29:49;13.40;99.90
75442;DHT22;64019;48.312;14.226;2023-08-31T04:32:14;13.40;99.90
75442;DHT22;64019;48.312;14.226;2023-08-31T04:34:40;13.50;99.90
75442;DHT22;64019;48.312;14.226;2023-08-31T04:37:05;13.50;99.90
75442;DHT22;64019;48.312;14.226;2023-08-31T04:39:31;13.50;99.90
75442;DHT22;64019;48.312;14.226;2023-08-31T04:41:57;13.50;99.90
75442;DHT22;64019;48.312;14.226;2023-08-31T04:44:22;13.50;99.90
75442;DHT22;64019;48.312;14.226;2023-08-31T04:46:48;13.40;99.90
75442;DHT22;64019;48.312;14.226;2023-08-31T04:49:14;13.50;99.90
75442;DHT22;64019;48.312;14.226;2023-08-31T04:51:39;13.50;99.90
75442;DHT22;64019;48.312;14.226;2023-08-31T04:54:07;13.40;99.90
75442;DHT22;64019;48.312;14.226;2023-08-31T04:56:33;13.40;99.90
75442;DHT22;64019;48.312;14.226;2023-08-31T04:58:59;13.40;99.90
75442;DHT22;64019;48.312;14.226;2023-08-31T05:01:25;13.30;99.90
75442;DHT22;64019;48.312;14.226;2023-08-31T05:03:51;13.30;99.90
75442;DHT22;64019;48.312;14.226;2023-08-31T05:06:16;13.30;99.90
75442;DHT22;64019;48.312;14.226;2023-08-31T05:08:42;13.30;99.90
75442;DHT22;64019;48.312;14.226;2023-08-31T05:11:08;13.30;99.90
75442;DHT22;64019;48.312;14.226;2023-08-31T05:13:34;13.30;99.90
75442;DHT22;64019;48.312;14.226;2023-08-31T05:16:00;13.30;99.90
75442;DHT22;64019;48.312;14.226;2023-08-31T05:18:26;13.30;99.90
75442;DHT22;64019;48.312;14.226;2023-08-31T05:20:51;13.30;99.90
75442;DHT22;64019;48.312;14.226;2023-08-31T05:23:17;13.40;99.90
75442;DHT22;64019;48.312;14.226;2023-08-31T05:25:46;13.50;99.90
75442;DHT22;64019;48.312;14.226;2023-08-31T05:28:12;13.60;99.90
75442;DHT22;64019;48.312;14.226;2023-08-31T05:30:52;13.60;99.90
75442;DHT22;64019;48.312;14.226;2023-08-31T05:33:19;13.60;99.90
75442;DHT22;64019;48.312;14.226;2023-08-31T05:35:45;13.50;99.90
75442;DHT22;64019;48.312;14.226;2023-08-31T05:38:11;13.50;99.90
75442;DHT22;64019;48.312;14.226;2023-08-31T05:40:37;13.50;99.90
75442;DHT22;64019;48.312;14.226;2023-08-31T05:43:02;13.50;99.90
75442;DHT22;64019;48.312;14.226;2023-08-31T05:45:32;13.50;99.90
75442;DHT22;64019;48.312;14.226;2023-08-31T05:47:58;13.60;99.90
75442;DHT22;64019;48.312;14.226;2023-08-31T05:50:23;13.50;99.90
75442;DHT22;64019;48.312;14.226;2023-08-31T05:52:49;13.50;99.90
75442;DHT22;64019;48.312;14.226;2023-08-31T05:55:15;13.50;99.90
75442;DHT22;64019;48.312;14.226;2023-08-31T05:57:40;13.40;99.90
75442;DHT22;64019;48.312;14.226;2023-08-31T06:00:06;13.50;99.90
75442;DHT22;64019;48.312;14.226;2023-08-31T06:02:33;13.60;99.90
75442;DHT22;64019;48.312;14.226;2023-08-31T06:04:59;13.70;99.90
75442;DHT22;64019;48.312;14.226;2023-08-31T06:07:25;13.80;99.90
75442;DHT22;64019;48.312;14.226;2023-08-31T06:09:50;13.80;99.90
75442;DHT22;64019;48.312;14.226;2023-08-31T06:12:16;13.90;99.90
75442;DHT22;64019;48.312;14.226;2023-08-31T06:14:41;14.00;99.90
75442;DHT22;64019;48.312;14.226;2023-08-31T06:17:07;14.10;99.90
75442;DHT22;64019;48.312;14.226;2023-08-31T06:19:34;14.30;99.90
75442;DHT22;64019;48.312;14.226;2023-08-31T06:21:59;14.30;99.90
75442;DHT22;64019;48.312;14.226;2023-08-31T06:24:25;14.40;99.90
75442;DHT22;64019;48.312;14.226;2023-08-31T06:26:51;14.50;99.90
75442;DHT22;64019;48.312;14.226;2023-08-31T06:29:17;14.60;99.90
75442;DHT22;64019;48.312;14.226;2023-08-31T06:31:43;14.70;99.90
75442;DHT22;64019;48.312;14.226;2023-08-31T06:34:08;14.70;99.90
75442;DHT22;64019;48.312;14.226;2023-08-31T06:36:34;14.70;99.90
75442;DHT22;64019;48.312;14.226;2023-08-31T06:39:00;14.80;99.90
75442;DHT22;64019;48.312;14.226;2023-08-31T06:41:25;14.90;99.90
75442;DHT22;64019;48.312;14.226;2023-08-31T06:43:51;15.00;99.90
75442;DHT22;64019;48.312;14.226;2023-08-31T06:46:17;15.10;99.90
75442;DHT22;64019;48.312;14.226;2023-08-31T06:48:42;15.10;99.90
75442;DHT22;64019;48.312;14.226;2023-08-31T06:51:08;14.90;99.90
75442;DHT22;64019;48.312;14.226;2023-08-31T06:53:34;14.80;99.90
75442;DHT22;64019;48.312;14.226;2023-08-31T06:55:59;14.70;99.90
75442;DHT22;64019;48.312;14.226;2023-08-31T06:58:25;14.80;99.90
75442;DHT22;64019;48.312;14.226;2023-08-31T07:00:51;14.80;99.90
75442;DHT22;64019;48.312;14.226;2023-08-31T07:03:16;14.80;99.90
75442;DHT22;64019;48.312;14.226;2023-08-31T07:05:43;14.70;99.90
75442;DHT22;64019;48.312;14.226;2023-08-31T07:08:09;14.60;99.90
75442;DHT22;64019;48.312;14.226;2023-08-31T07:10:35;14.70;99.90
75442;DHT22;64019;48.312;14.226;2023-08-31T07:13:02;14.70;99.90
75442;DHT22;64019;48.312;14.226;2023-08-31T07:15:29;14.70;99.90
75442;DHT22;64019;48.312;14.226;2023-08-31T07:17:54;14.80;99.90
75442;DHT22;64019;48.312;14.226;2023-08-31T07:20:20;14.90;99.90
75442;DHT22;64019;48.312;14.226;2023-08-31T07:22:46;15.00;99.90
75442;DHT22;64019;48.312;14.226;2023-08-31T07:25:11;15.00;99.90
75442;DHT22;64019;48.312;14.226;2023-08-31T07:27:37;15.10;99.90
75442;DHT22;64019;48.312;14.226;2023-08-31T07:30:04;15.10;99.90
75442;DHT22;64019;48.312;14.226;2023-08-31T07:32:31;15.30;99.90
75442;DHT22;64019;48.312;14.226;2023-08-31T07:34:57;15.50;99.90
75442;DHT22;64019;48.312;14.226;2023-08-31T07:37:22;15.50;99.90
75442;DHT22;64019;48.312;14.226;2023-08-31T07:39:48;15.60;99.90
75442;DHT22;64019;48.312;14.226;2023-08-31T07:42:14;15.70;99.90
75442;DHT22;64019;48.312;14.226;2023-08-31T07:44:39;15.80;99.90
75442;DHT22;64019;48.312;14.226;2023-08-31T07:47:07;15.90;99.90
75442;DHT22;64019;48.312;14.226;2023-08-31T07:49:33;15.90;99.90
75442;DHT22;64019;48.312;14.226;2023-08-31T07:51:59;16.00;99.90
75442;DHT22;64019;48.312;14.226;2023-08-31T07:54:24;16.00;99.90
75442;DHT22;64019;48.312;14.226;2023-08-31T07:56:51;16.10;99.90
75442;DHT22;64019;48.312;14.226;2023-08-31T07:59:17;16.10;99.90
75442;DHT22;64019;48.312;14.226;2023-08-31T08:01:44;16.20;99.90
75442;DHT22;64019;48.312;14.226;2023-08-31T08:04:11;16.40;99.90
75442;DHT22;64019;48.312;14.226;2023-08-31T08:06:37;16.60;99.90
75442;DHT22;64019;48.312;14.226;2023-08-31T08:09:03;16.70;99.90
75442;DHT22;64019;48.312;14.226;2023-08-31T08:11:30;16.80;99.90
75442;DHT22;64019;48.312;14.226;2023-08-31T08:13:56;16.80;99.90
75442;DHT22;64019;48.312;14.226;2023-08-31T08:16:21;16.80;99.90
75442;DHT22;64019;48.312;14.226;2023-08-31T08:18:47;16.80;99.90
75442;DHT22;64019;48.312;14.226;2023-08-31T08:21:13;16.90;99.90
75442;DHT22;64019;48.312;14.226;2023-08-31T08:23:38;16.90;99.90
75442;DHT22;64019;48.312;14.226;2023-08-31T08:26:04;16.90;99.90
75442;DHT22;64019;48.312;14.226;2023-08-31T08:28:30;17.10;99.90
75442;DHT22;64019;48.312;14.226;2023-08-31T08:30:55;17.10;99.90
75442;DHT22;64019;48.312;14.226;2023-08-31T08:33:21;17.20;99.90
75442;DHT22;64019;48.312;14.226;2023-08-31T08:35:47;17.40;99.90
75442;DHT22;64019;48.312;14.226;2023-08-31T08:38:12;17.40;99.90
75442;DHT22;64019;48.312;14.226;2023-08-31T08:40:38;17.40;99.90
75442;DHT22;64019;48.312;14.226;2023-08-31T08:43:07;17.40;99.90
75442;DHT22;64019;48.312;14.226;2023-08-31T08:45:37;17.60;99.90
75442;DHT22;64019;48.312;14.226;2023-08-31T08:48:05;17.80;99.90
75442;DHT22;64019;48.312;14.226;2023-08-31T08:50:32;17.90;99.90
75442;DHT22;64019;48.312;14.226;2023-08-31T08:53:00;17.90;99.90
75442;DHT22;64019;48.312;14.226;2023-08-31T08:55:25;17.90;99.90
75442;DHT22;64019;48.312;14.226;2023-08-31T08:57:51;17.90;99.90
75442;DHT22;64019;48.312;14.226;2023-08-31T09:00:16;18.00;99.90
75442;DHT22;64019;48.312;14.226;2023-08-31T09:02:42;18.00;99.90
75442;DHT22;64019;48.312;14.226;2023-08-31T09:05:08;18.00;99.90
75442;DHT22;64019;48.312;14.226;2023-08-31T09:07:35;18.10;99.90
75442;DHT22;64019;48.312;14.226;2023-08-31T09:10:02;18.00;99.90
75442;DHT22;64019;48.312;14.226;2023-08-31T09:12:29;18.00;99.90
75442;DHT22;64019;48.312;14.226;2023-08-31T09:17:24;18.00;99.90
75442;DHT22;64019;48.312;14.226;2023-08-31T09:20:00;18.00;99.90
75442;DHT22;64019;48.312;14.226;2023-08-31T09:22:26;18.20;99.90
75442;DHT22;64019;48.312;14.226;2023-08-31T09:24:52;18.30;99.90
75442;DHT22;64019;48.312;14.226;2023-08-31T09:27:20;18.40;99.90
75442;DHT22;64019;48.312;14.226;2023-08-31T09:29:46;18.50;99.90
75442;DHT22;64019;48.312;14.226;2023-08-31T09:32:21;18.20;99.90
75442;DHT22;64019;48.312;14.226;2023-08-31T09:34:47;18.20;99.90
75442;DHT22;64019;48.312;14.226;2023-08-31T09:37:16;18.10;99.90
75442;DHT22;64019;48.312;14.226;2023-08-31T09:39:42;18.00;99.90
75442;DHT22;64019;48.312;14.226;2023-08-31T09:42:08;17.90;99.90
75442;DHT22;64019;48.312;14.226;2023-08-31T09:44:34;17.80;99.90
75442;DHT22;64019;48.312;14.226;2023-08-31T09:47:00;17.90;99.90
75442;DHT22;64019;48.312;14.226;2023-08-31T09:49:27;17.90;99.90
75442;DHT22;64019;48.312;14.226;2023-08-31T09:51:53;17.90;99.90
75442;DHT22;64019;48.312;14.226;2023-08-31T09:54:20;18.00;99.90
75442;DHT22;64019;48.312;14.226;2023-08-31T09:56:47;18.00;99.90
75442;DHT22;64019;48.312;14.226;2023-08-31T09:59:14;18.00;99.90
75442;DHT22;64019;48.312;14.226;2023-08-31T10:01:41;18.10;99.90
75442;DHT22;64019;48.312;14.226;2023-08-31T10:04:08;18.10;99.90
75442;DHT22;64019;48.312;14.226;2023-08-31T10:06:41;18.10;99.90
75442;DHT22;64019;48.312;14.226;2023-08-31T10:09:08;18.20;99.90
75442;DHT22;64019;48.312;14.226;2023-08-31T10:11:41;18.20;99.90
75442;DHT22;64019;48.312;14.226;2023-08-31T10:14:09;18.10;99.90
75442;DHT22;64019;48.312;14.226;2023-08-31T10:16:37;18.10;99.90
75442;DHT22;64019;48.312;14.226;2023-08-31T10:19:04;18.20;99.90
75442;DHT22;64019;48.312;14.226;2023-08-31T10:21:30;18.10;99.90
75442;DHT22;64019;48.312;14.226;2023-08-31T10:23:56;18.00;99.90
75442;DHT22;64019;48.312;14.226;2023-08-31T10:26:29;17.90;99.90
75442;DHT22;64019;48.312;14.226;2023-08-31T10:28:55;17.70;99.90
75442;DHT22;64019;48.312;14.226;2023-08-31T10:31:22;17.80;99.90
75442;DHT22;64019;48.312;14.226;2023-08-31T10:33:59;17.80;99.90
75442;DHT22;64019;48.312;14.226;2023-08-31T10:36:44;17.90;99.90
75442;DHT22;64019;48.312;14.226;2023-08-31T10:39:15;17.90;99.90
75442;DHT22;64019;48.312;14.226;2023-08-31T10:41:56;17.90;99.90
75442;DHT22;64019;48.312;14.226;2023-08-31T10:44:26;17.90;99.90
75442;DHT22;64019;48.312;14.226;2023-08-31T10:46:54;18.00;99.90
75442;DHT22;64019;48.312;14.226;2023-08-31T10:49:22;18.00;99.90
75442;DHT22;64019;48.312;14.226;2023-08-31T10:51:55;18.00;99.90
75442;DHT22;64019;48.312;14.226;2023-08-31T10:54:23;17.90;99.90
75442;DHT22;64019;48.312;14.226;2023-08-31T10:59:50;18.10;99.90
75442;DHT22;64019;48.312;14.226;2023-08-31T11:02:38;18.10;99.90
75442;DHT22;64019;48.312;14.226;2023-08-31T11:07:42;18.10;99.90
75442;DHT22;64019;48.312;14.226;2023-08-31T11:10:17;18.20;99.90
75442;DHT22;64019;48.312;14.226;2023-08-31T11:12:47;18.20;99.90
75442;DHT22;64019;48.312;14.226;2023-08-31T11:15:18;18.40;99.90
75442;DHT22;64019;48.312;14.226;2023-08-31T11:17:44;18.40;99.90
75442;DHT22;64019;48.312;14.226;2023-08-31T11:20:18;18.50;99.90
75442;DHT22;64019;48.312;14.226;2023-08-31T11:22:51;18.40;99.90
75442;DHT22;64019;48.312;14.226;2023-08-31T11:25:18;18.40;99.90
75442;DHT22;64019;48.312;14.226;2023-08-31T11:28:01;18.40;99.90
75442;DHT22;64019;48.312;14.226;2023-08-31T11:30:30;18.40;99.90
75442;DHT22;64019;48.312;14.226;2023-08-31T11:33:06;18.40;99.90
75442;DHT22;64019;48.312;14.226;2023-08-31T11:35:38;18.40;99.90
75442;DHT22;64019;48.312;14.226;2023-08-31T11:38:05;18.50;99.90
75442;DHT22;64019;48.312;14.226;2023-08-31T11:40:31;18.50;99.90
75442;DHT22;64019;48.312;14.226;2023-08-31T11:42:59;18.60;99.90
75442;DHT22;64019;48.312;14.226;2023-08-31T11:45:26;18.70;99.90
75442;DHT22;64019;48.312;14.226;2023-08-31T11:47:53;18.70;99.90
75442;DHT22;64019;48.312;14.226;2023-08-31T11:50:19;18.60;99.90
75442;DHT22;64019;48.312;14.226;2023-08-31T11:52:46;18.60;99.90
75442;DHT22;64019;48.312;14.226;2023-08-31T11:55:14;18.40;99.90
75442;DHT22;64019;48.312;14.226;2023-08-31T11:57:40;18.60;99.90
75442;DHT22;64019;48.312;14.226;2023-08-31T12:00:06;18.70;99.90
75442;DHT22;64019;48.312;14.226;2023-08-31T12:02:36;18.80;99.90
75442;DHT22;64019;48.312;14.226;2023-08-31T12:05:01;19.00;99.90
75442;DHT22;64019;48.312;14.226;2023-08-31T12:07:27;19.00;99.90
75442;DHT22;64019;48.312;14.226;2023-08-31T12:09:53;19.00;99.90
75442;DHT22;64019;48.312;14.226;2023-08-31T12:12:23;19.10;99.90
75442;DHT22;64019;48.312;14.226;2023-08-31T12:14:52;19.10;99.90
75442;DHT22;64019;48.312;14.226;2023-08-31T12:17:19;19.10;99.90
75442;DHT22;64019;48.312;14.226;2023-08-31T12:19:44;19.00;99.90
75442;DHT22;64019;48.312;14.226;2023-08-31T12:22:11;18.80;99.90
75442;DHT22;64019;48.312;14.226;2023-08-31T12:24:40;18.80;99.90
75442;DHT22;64019;48.312;14.226;2023-08-31T12:27:09;18.80;99.90
75442;DHT22;64019;48.312;14.226;2023-08-31T12:29:36;18.80;99.90
75442;DHT22;64019;48.312;14.226;2023-08-31T12:32:02;18.80;99.90
75442;DHT22;64019;48.312;14.226;2023-08-31T12:34:29;18.90;99.90
75442;DHT22;64019;48.312;14.226;2023-08-31T12:36:56;19.00;99.90
75442;DHT22;64019;48.312;14.226;2023-08-31T12:39:25;19.00;99.90
75442;DHT22;64019;48.312;14.226;2023-08-31T12:41:51;19.00;99.90
75442;DHT22;64019;48.312;14.226;2023-08-31T12:44:16;19.00;99.90
75442;DHT22;64019;48.312;14.226;2023-08-31T12:46:42;19.00;99.90
75442;DHT22;64019;48.312;14.226;2023-08-31T12:49:07;19.00;99.90
75442;DHT22;64019;48.312;14.226;2023-08-31T12:51:33;19.00;99.90
75442;DHT22;64019;48.312;14.226;2023-08-31T12:53:59;19.10;99.90
75442;DHT22;64019;48.312;14.226;2023-08-31T12:56:24;19.10;99.90
75442;DHT22;64019;48.312;14.226;2023-08-31T12:58:53;19.10;99.90
75442;DHT22;64019;48.312;14.226;2023-08-31T13:01:20;19.10;99.90
75442;DHT22;64019;48.312;14.226;2023-08-31T13:03:47;19.20;99.90
75442;DHT22;64019;48.312;14.226;2023-08-31T13:06:13;19.20;99.90
75442;DHT22;64019;48.312;14.226;2023-08-31T13:08:39;19.20;99.90
75442;DHT22;64019;48.312;14.226;2023-08-31T13:11:05;19.40;99.90
75442;DHT22;64019;48.312;14.226;2023-08-31T13:13:32;19.40;99.90
75442;DHT22;64019;48.312;14.226;2023-08-31T13:15:57;19.40;99.90
75442;DHT22;64019;48.312;14.226;2023-08-31T13:18:23;19.40;99.90
75442;DHT22;64019;48.312;14.226;2023-08-31T13:20:50;19.40;99.90
75442;DHT22;64019;48.312;14.226;2023-08-31T13:23:16;19.50;99.90
75442;DHT22;64019;48.312;14.226;2023-08-31T13:25:42;19.50;99.90
75442;DHT22;64019;48.312;14.226;2023-08-31T13:28:08;19.50;99.90
75442;DHT22;64019;48.312;14.226;2023-08-31T13:30:33;19.40;99.90
75442;DHT22;64019;48.312;14.226;2023-08-31T13:32:59;19.40;99.90
75442;DHT22;64019;48.312;14.226;2023-08-31T13:35:25;19.40;99.90
75442;DHT22;64019;48.312;14.226;2023-08-31T13:37:50;19.50;99.90
75442;DHT22;64019;48.312;14.226;2023-08-31T13:40:16;19.50;99.90
75442;DHT22;64019;48.312;14.226;2023-08-31T13:42:53;19.60;99.90
75442;DHT22;64019;48.312;14.226;2023-08-31T13:45:20;19.60;99.90
75442;DHT22;64019;48.312;14.226;2023-08-31T13:47:45;19.60;99.90
75442;DHT22;64019;48.312;14.226;2023-08-31T13:50:17;19.60;99.90
75442;DHT22;64019;48.312;14.226;2023-08-31T13:52:43;19.60;99.90
75442;DHT22;64019;48.312;14.226;2023-08-31T13:55:09;19.60;99.90
75442;DHT22;64019;48.312;14.226;2023-08-31T13:57:34;19.60;99.90
75442;DHT22;64019;48.312;14.226;2023-08-31T14:00:01;19.60;99.90
75442;DHT22;64019;48.312;14.226;2023-08-31T14:02:26;19.70;99.90
75442;DHT22;64019;48.312;14.226;2023-08-31T14:04:53;19.70;99.90
75442;DHT22;64019;48.312;14.226;2023-08-31T14:07:19;19.80;99.90
75442;DHT22;64019;48.312;14.226;2023-08-31T14:09:45;19.90;99.90
75442;DHT22;64019;48.312;14.226;2023-08-31T14:12:10;20.00;99.90
75442;DHT22;64019;48.312;14.226;2023-08-31T14:14:36;20.10;99.90
75442;DHT22;64019;48.312;14.226;2023-08-31T14:17:02;20.10;99.90
75442;DHT22;64019;48.312;14.226;2023-08-31T14:19:29;20.00;99.90
75442;DHT22;64019;48.312;14.226;2023-08-31T14:21:54;20.00;99.90
75442;DHT22;64019;48.312;14.226;2023-08-31T14:24:20;20.00;99.90
75442;DHT22;64019;48.312;14.226;2023-08-31T14:26:45;20.00;99.90
75442;DHT22;64019;48.312;14.226;2023-08-31T14:29:11;20.00;99.90
75442;DHT22;64019;48.312;14.226;2023-08-31T14:31:37;19.90;99.90
75442;DHT22;64019;48.312;14.226;2023-08-31T14:34:03;19.80;99.90
75442;DHT22;64019;48.312;14.226;2023-08-31T14:36:29;19.70;99.90
75442;DHT22;64019;48.312;14.226;2023-08-31T14:38:55;19.70;99.90
75442;DHT22;64019;48.312;14.226;2023-08-31T14:41:20;19.70;99.90
75442;DHT22;64019;48.312;14.226;2023-08-31T14:43:46;19.70;99.90
75442;DHT22;64019;48.312;14.226;2023-08-31T14:46:12;19.70;99.90
75442;DHT22;64019;48.312;14.226;2023-08-31T14:48:37;19.80;99.90
75442;DHT22;64019;48.312;14.226;2023-08-31T14:51:03;19.70;99.90
75442;DHT22;64019;48.312;14.226;2023-08-31T14:53:28;19.80;99.90
75442;DHT22;64019;48.312;14.226;2023-08-31T14:55:54;19.90;99.90
75442;DHT22;64019;48.312;14.226;2023-08-31T14:58:20;19.90;99.90
75442;DHT22;64019;48.312;14.226;2023-08-31T15:00:46;19.90;99.90
75442;DHT22;64019;48.312;14.226;2023-08-31T15:03:12;19.90;99.90
75442;DHT22;64019;48.312;14.226;2023-08-31T15:05:38;19.90;99.90
75442;DHT22;64019;48.312;14.226;2023-08-31T15:08:07;19.80;99.90
75442;DHT22;64019;48.312;14.226;2023-08-31T15:10:33;19.70;99.90
75442;DHT22;64019;48.312;14.226;2023-08-31T15:12:59;19.80;99.90
75442;DHT22;64019;48.312;14.226;2023-08-31T15:15:28;19.80;99.90
75442;DHT22;64019;48.312;14.226;2023-08-31T15:17:54;19.70;99.90
75442;DHT22;64019;48.312;14.226;2023-08-31T15:20:20;19.60;99.90
75442;DHT22;64019;48.312;14.226;2023-08-31T15:22:47;19.60;99.90
75442;DHT22;64019;48.312;14.226;2023-08-31T15:25:12;19.50;99.90
75442;DHT22;64019;48.312;14.226;2023-08-31T15:27:38;19.60;99.90
75442;DHT22;64019;48.312;14.226;2023-08-31T15:30:04;19.50;99.90
75442;DHT22;64019;48.312;14.226;2023-08-31T15:32:33;19.50;99.90
75442;DHT22;64019;48.312;14.226;2023-08-31T15:34:58;19.50;99.90
75442;DHT22;64019;48.312;14.226;2023-08-31T15:37:24;19.50;99.90